createdAt,value
2022-08-27T00:00:02.934Z,20.3
2022-08-27T00:20:02.696Z,20.3
2022-08-27T00:40:03.229Z,20.2
2022-08-27T01:00:02.935Z,20.2
2022-08-27T01:20:02.674Z,20.2
2022-08-27T01:40:03.052Z,20.2
2022-08-27T02:00:02.784Z,20.3
2022-08-27T02:20:02.946Z,20.3
2022-08-27T02:40:02.349Z,20.3
2022-08-27T03:00:02.864Z,20.3
2022-08-27T03:20:02.453Z,20.4
2022-08-27T03:40:03.016Z,20.3
2022-08-27T04:00:02.512Z,20.3
2022-08-27T04:20:24.846Z,20.4
2022-08-27T04:40:03.086Z,20.5
2022-08-27T05:00:03.420Z,20.4
2022-08-27T05:20:02.431Z,20.5
2022-08-27T05:40:02.950Z,20.6
2022-08-27T06:00:02.455Z,20.6
2022-08-27T06:20:02.207Z,20.7
2022-08-27T06:40:02.767Z,20.9
2022-08-27T07:00:02.506Z,21
2022-08-27T07:20:02.370Z,20.9
2022-08-27T07:40:03.139Z,21.1
2022-08-27T08:00:02.700Z,21.3
2022-08-27T08:20:19.768Z,21.5
2022-08-27T08:40:02.727Z,21.3
2022-08-27T09:00:02.352Z,21.2
2022-08-27T09:20:03.048Z,21.2
2022-08-27T09:40:02.428Z,21.7
2022-08-27T10:00:03.099Z,21.8
2022-08-27T10:20:02.810Z,21.7
2022-08-27T10:40:03.530Z,22
2022-08-27T11:00:04.766Z,22.3
2022-08-27T11:20:03.921Z,22.5
2022-08-27T11:40:03.296Z,23
2022-08-27T12:00:03.289Z,23.1
2022-08-27T12:20:03.424Z,23.4
2022-08-27T12:40:03.139Z,23.5
2022-08-27T13:00:03.955Z,23.6
2022-08-27T13:20:03.489Z,23.6
2022-08-27T13:40:03.741Z,24.2
2022-08-27T14:00:03.569Z,24.8
2022-08-27T14:20:04.368Z,24.9
2022-08-27T14:40:04.058Z,25
2022-08-27T15:00:03.452Z,25.3
2022-08-27T15:20:03.625Z,25.3
2022-08-27T15:40:03.477Z,25.2
2022-08-27T16:00:04.232Z,25
2022-08-27T16:20:03.890Z,24.8
2022-08-27T16:40:03.930Z,24.4
2022-08-27T17:00:03.322Z,24
2022-08-27T17:20:04.019Z,23.7
2022-08-27T17:40:03.924Z,23.2
2022-08-27T18:00:05.077Z,22.9
2022-08-27T18:20:02.808Z,22.6
2022-08-27T18:40:04.215Z,22.3
2022-08-27T19:00:04.108Z,22.1
2022-08-27T19:20:03.830Z,21.9
2022-08-27T19:40:03.587Z,21.6
2022-08-27T20:00:04.320Z,21.5
2022-08-27T20:20:03.623Z,21.3
2022-08-27T20:40:04.551Z,21.2
2022-08-27T21:00:02.338Z,21
2022-08-27T21:20:02.980Z,20.9
2022-08-27T21:40:02.297Z,20.9
2022-08-27T22:00:02.793Z,20.7
2022-08-27T22:20:02.345Z,20.6
2022-08-27T22:40:03.955Z,20.5
2022-08-27T23:00:02.471Z,20.7
2022-08-27T23:20:02.135Z,20.5
2022-08-27T23:40:03.061Z,20.4
